createdAt,value
2022-11-16T00:00:31.066Z,4.65
2022-11-16T00:01:33.557Z,4.60
2022-11-16T00:02:36.574Z,5.60
2022-11-16T00:03:38.395Z,6.03
2022-11-16T00:04:41.220Z,5.32
2022-11-16T00:05:42.790Z,5.10
2022-11-16T00:06:45.720Z,5.00
2022-11-16T00:07:47.266Z,4.78
2022-11-16T00:09:15.070Z,4.97
2022-11-16T00:10:16.911Z,4.57
2022-11-16T00:11:23.902Z,4.55
2022-11-16T00:12:26.760Z,5.00
2022-11-16T00:13:29.232Z,5.55
2022-11-16T00:14:33.534Z,4.95
2022-11-16T00:15:36.015Z,4.70
2022-11-16T00:16:37.710Z,5.30
2022-11-16T00:17:40.212Z,5.28
2022-11-16T00:18:41.899Z,5.05
2022-11-16T00:19:44.460Z,5.03
2022-11-16T00:20:46.148Z,4.82
2022-11-16T00:21:48.740Z,5.25
2022-11-16T00:22:50.256Z,5.57
2022-11-16T00:23:52.896Z,5.15
2022-11-16T00:24:55.374Z,5.45
2022-11-16T00:26:02.534Z,5.10
2022-11-16T00:27:05.047Z,5.05
2022-11-16T00:28:07.972Z,4.68
2022-11-16T00:29:15.838Z,5.03
2022-11-16T00:30:17.337Z,6.10
2022-11-16T00:31:20.360Z,4.90
2022-11-16T00:32:21.855Z,5.30
2022-11-16T00:33:24.322Z,5.15
2022-11-16T00:34:25.869Z,5.00
2022-11-16T00:35:30.173Z,6.68
2022-11-16T00:36:32.263Z,5.55
2022-11-16T00:37:34.756Z,5.80
2022-11-16T00:38:36.754Z,4.80
2022-11-16T00:39:39.365Z,4.82
2022-11-16T00:40:40.893Z,5.03
2022-11-16T00:41:44.711Z,5.88
2022-11-16T00:42:46.264Z,5.20
2022-11-16T00:43:50.082Z,4.80
2022-11-16T00:44:51.594Z,4.82
2022-11-16T00:45:54.588Z,5.53
2022-11-16T00:46:56.075Z,5.10
2022-11-16T00:48:00.587Z,5.15
2022-11-16T00:49:02.879Z,4.80
2022-11-16T00:50:06.845Z,4.70
2022-11-16T00:51:08.334Z,5.57
2022-11-16T00:52:10.868Z,5.53
2022-11-16T00:53:13.830Z,5.18
2022-11-16T00:54:16.310Z,6.25
2022-11-16T00:55:17.836Z,5.10
2022-11-16T00:56:20.440Z,5.05
2022-11-16T00:57:21.949Z,6.15
2022-11-16T00:58:24.864Z,5.38
2022-11-16T00:59:27.780Z,5.82
2022-11-16T01:00:30.350Z,5.70
2022-11-16T01:01:31.928Z,6.00
2022-11-16T01:02:34.444Z,5.70
2022-11-16T01:03:36.383Z,5.53
2022-11-16T01:04:38.873Z,5.50
2022-11-16T01:05:40.452Z,5.30
2022-11-16T01:06:42.912Z,5.60
2022-11-16T01:07:44.602Z,5.85
2022-11-16T01:08:47.464Z,5.80
2022-11-16T01:09:48.994Z,5.70
2022-11-16T01:10:51.471Z,5.85
2022-11-16T01:12:12.633Z,5.50
2022-11-16T01:13:14.152Z,5.18
2022-11-16T01:14:17.308Z,5.72
2022-11-16T01:15:22.450Z,5.38
2022-11-16T01:16:25.514Z,5.45
2022-11-16T01:17:27.239Z,5.03
2022-11-16T01:18:29.829Z,5.63
2022-11-16T01:19:31.477Z,5.22
2022-11-16T01:20:34.072Z,5.15
2022-11-16T01:21:35.634Z,5.68
2022-11-16T01:22:39.481Z,5.50
2022-11-16T01:23:41.340Z,5.45
2022-11-16T01:24:43.912Z,5.80
2022-11-16T01:25:45.517Z,5.68
2022-11-16T01:26:48.072Z,5.90
2022-11-16T01:27:49.780Z,5.88
2022-11-16T01:28:52.288Z,5.38
2022-11-16T01:29:53.805Z,5.28
2022-11-16T01:30:57.853Z,5.75
2022-11-16T01:31:59.475Z,5.53
2022-11-16T01:33:02.018Z,5.60
2022-11-16T01:34:03.526Z,6.30
2022-11-16T01:35:07.382Z,5.50
2022-11-16T01:36:14.570Z,5.70
2022-11-16T01:37:17.765Z,6.00
2022-11-16T01:38:19.394Z,5.63
2022-11-16T01:39:22.305Z,5.68
2022-11-16T01:40:23.814Z,6.07
2022-11-16T01:41:27.385Z,6.50
2022-11-16T01:42:31.375Z,6.35
2022-11-16T01:43:51.419Z,5.60
2022-11-16T01:45:00.723Z,5.95
2022-11-16T01:46:04.554Z,5.80
2022-11-16T01:47:09.968Z,5.82
2022-11-16T01:48:20.780Z,6.72
2022-11-16T01:49:25.404Z,6.50
2022-11-16T01:50:27.980Z,7.35
2022-11-16T01:51:30.229Z,6.15
2022-11-16T01:52:36.284Z,6.88
2022-11-16T01:53:41.015Z,6.32
2022-11-16T01:54:46.611Z,5.90
2022-11-16T01:55:49.452Z,6.15
2022-11-16T01:56:54.432Z,5.90
2022-11-16T01:57:56.868Z,6.55
2022-11-16T01:58:59.814Z,6.07
2022-11-16T02:00:02.907Z,6.60
2022-11-16T02:01:08.933Z,6.63
2022-11-16T02:02:10.510Z,6.60
2022-11-16T02:03:13.052Z,6.13
2022-11-16T02:04:14.741Z,5.90
2022-11-16T02:05:21.047Z,5.80
2022-11-16T02:06:33.787Z,5.90
2022-11-16T02:08:14.254Z,5.70
2022-11-16T02:09:52.864Z,6.30
2022-11-16T02:11:11.054Z,5.55
2022-11-16T02:12:26.884Z,5.43
2022-11-16T02:13:40.612Z,5.95
2022-11-16T02:15:03.569Z,5.97
2022-11-16T02:16:20.811Z,6.07
2022-11-16T02:17:32.059Z,5.85
2022-11-16T02:18:42.869Z,5.90
2022-11-16T02:20:09.550Z,6.22
2022-11-16T02:21:27.640Z,6.35
2022-11-16T02:22:43.694Z,6.88
2022-11-16T02:24:08.216Z,6.28
2022-11-16T02:25:13.738Z,5.97
2022-11-16T02:26:37.358Z,6.15
2022-11-16T02:28:00.314Z,6.45
2022-11-16T02:29:20.611Z,7.38
2022-11-16T02:30:23.212Z,6.38
2022-11-16T02:31:29.119Z,7.25
2022-11-16T02:32:35.793Z,6.60
2022-11-16T02:33:41.912Z,6.18
2022-11-16T02:34:48.502Z,6.45
2022-11-16T02:35:54.355Z,6.82
2022-11-16T02:36:58.126Z,7.45
2022-11-16T02:38:03.581Z,7.60
2022-11-16T02:39:10.481Z,6.88
2022-11-16T02:40:16.604Z,7.15
2022-11-16T02:41:22.224Z,6.32
2022-11-16T02:42:30.157Z,6.82
2022-11-16T02:43:36.120Z,7.13
2022-11-16T02:44:44.783Z,7.05
2022-11-16T02:45:50.823Z,6.95
2022-11-16T02:46:58.822Z,6.50
2022-11-16T02:48:06.232Z,6.10
2022-11-16T02:49:15.088Z,7.13
2022-11-16T02:50:19.522Z,6.53
2022-11-16T02:51:23.702Z,5.90
2022-11-16T02:52:28.494Z,6.50
2022-11-16T02:53:34.783Z,6.28
2022-11-16T02:54:36.304Z,6.65
2022-11-16T02:55:39.158Z,7.40
2022-11-16T02:56:43.830Z,6.53
2022-11-16T02:57:52.603Z,6.47
2022-11-16T02:58:54.623Z,6.35
2022-11-16T02:59:59.811Z,6.70
2022-11-16T03:01:05.986Z,6.65
2022-11-16T03:02:18.873Z,6.78
2022-11-16T03:03:29.422Z,8.00
2022-11-16T03:04:34.905Z,6.70
2022-11-16T03:05:42.138Z,5.55
2022-11-16T03:06:49.517Z,6.68
2022-11-16T03:07:57.692Z,6.72
2022-11-16T03:09:03.160Z,6.15
2022-11-16T03:10:05.455Z,6.35
2022-11-16T03:11:28.765Z,6.10
2022-11-16T03:12:32.416Z,6.40
2022-11-16T03:13:38.138Z,6.40
2022-11-16T03:14:43.492Z,6.60
2022-11-16T03:15:48.811Z,6.15
2022-11-16T03:16:55.954Z,6.25
2022-11-16T03:18:01.203Z,6.53
2022-11-16T03:19:06.450Z,6.53
2022-11-16T03:20:13.570Z,6.30
2022-11-16T03:21:24.641Z,6.55
2022-11-16T03:22:32.218Z,5.90
2022-11-16T03:23:33.959Z,5.95
2022-11-16T03:24:36.638Z,6.13
2022-11-16T03:25:44.019Z,5.93
2022-11-16T03:26:51.679Z,5.30
2022-11-16T03:27:59.044Z,6.10
2022-11-16T03:29:09.044Z,5.45
2022-11-16T03:30:14.474Z,6.13
2022-11-16T03:31:25.078Z,5.55
2022-11-16T03:32:34.089Z,5.90
2022-11-16T03:33:40.510Z,5.68
2022-11-16T03:34:50.588Z,5.32
2022-11-16T03:35:58.192Z,5.93
2022-11-16T03:37:02.162Z,5.43
2022-11-16T03:38:06.102Z,5.82
2022-11-16T03:39:13.144Z,5.78
2022-11-16T03:40:16.850Z,5.68
2022-11-16T03:41:23.235Z,5.85
2022-11-16T03:42:26.930Z,6.25
2022-11-16T03:43:31.192Z,5.93
2022-11-16T03:44:33.963Z,6.10
2022-11-16T03:45:37.933Z,5.15
2022-11-16T03:46:42.236Z,6.75
2022-11-16T03:47:45.680Z,6.10
2022-11-16T03:48:47.363Z,6.85
2022-11-16T03:49:49.840Z,6.63
2022-11-16T03:50:52.345Z,6.50
2022-11-16T03:51:55.183Z,6.60
2022-11-16T03:52:56.726Z,5.88
2022-11-16T03:53:59.209Z,5.68
2022-11-16T03:55:00.772Z,6.90
2022-11-16T03:56:04.122Z,6.70
2022-11-16T03:57:05.786Z,6.50
2022-11-16T03:58:08.583Z,6.75
2022-11-16T03:59:10.245Z,6.13
2022-11-16T04:00:13.702Z,6.88
2022-11-16T04:01:17.067Z,6.50
2022-11-16T04:02:20.956Z,6.80
2022-11-16T04:03:22.692Z,7.45
2022-11-16T04:04:43.101Z,7.00
2022-11-16T04:06:03.441Z,6.30
2022-11-16T04:07:23.796Z,6.50
2022-11-16T04:08:44.085Z,6.95
2022-11-16T04:10:06.283Z,5.35
2022-11-16T04:11:30.326Z,6.30
2022-11-16T04:12:50.848Z,5.63
2022-11-16T04:14:11.092Z,6.25
2022-11-16T04:15:31.407Z,5.95
2022-11-16T04:16:51.709Z,6.80
2022-11-16T04:18:13.368Z,6.53
2022-11-16T04:19:33.717Z,6.53
2022-11-16T04:21:08.276Z,6.10
2022-11-16T04:22:35.585Z,6.70
2022-11-16T04:23:55.895Z,6.45
2022-11-16T04:25:04.423Z,6.55
2022-11-16T04:26:08.216Z,6.40
2022-11-16T04:27:32.495Z,7.35
2022-11-16T04:28:35.705Z,6.30
2022-11-16T04:29:39.153Z,7.68
2022-11-16T04:31:01.398Z,6.72
2022-11-16T04:32:21.666Z,7.18
2022-11-16T04:33:43.488Z,7.07
2022-11-16T04:35:03.718Z,6.85
2022-11-16T04:36:24.541Z,6.65
2022-11-16T04:37:44.883Z,7.22
2022-11-16T04:38:47.352Z,6.15
2022-11-16T04:39:48.846Z,5.95
2022-11-16T04:40:51.459Z,6.28
2022-11-16T04:42:11.577Z,7.05
2022-11-16T04:43:13.067Z,6.50
2022-11-16T04:44:15.715Z,7.22
2022-11-16T04:45:36.118Z,6.22
2022-11-16T04:46:56.583Z,6.68
2022-11-16T04:47:58.343Z,6.80
2022-11-16T04:49:02.471Z,5.15
2022-11-16T04:50:04.820Z,5.88
2022-11-16T04:51:07.492Z,5.55
2022-11-16T04:52:09.025Z,5.55
2022-11-16T04:53:12.045Z,6.28
2022-11-16T04:54:13.819Z,5.18
2022-11-16T04:55:16.417Z,6.00
2022-11-16T04:56:17.972Z,4.97
2022-11-16T04:57:20.535Z,5.13
2022-11-16T04:58:22.072Z,5.20
2022-11-16T04:59:24.539Z,5.30
2022-11-16T05:00:26.095Z,6.25
2022-11-16T05:01:42.615Z,4.95
2022-11-16T05:02:45.442Z,5.80
2022-11-16T05:03:46.935Z,5.72
2022-11-16T05:04:50.984Z,5.15
2022-11-16T05:05:53.553Z,5.30
2022-11-16T05:06:55.096Z,4.78
2022-11-16T05:07:57.598Z,5.10
2022-11-16T05:08:59.100Z,5.82
2022-11-16T05:10:01.628Z,4.50
2022-11-16T05:11:03.233Z,5.50
2022-11-16T05:12:06.025Z,5.20
2022-11-16T05:13:07.548Z,5.03
2022-11-16T05:14:10.521Z,4.43
2022-11-16T05:15:12.195Z,5.30
2022-11-16T05:16:14.704Z,5.53
2022-11-16T05:17:17.519Z,4.93
2022-11-16T05:18:20.143Z,3.88
2022-11-16T05:19:40.349Z,4.35
2022-11-16T05:21:01.575Z,4.60
2022-11-16T05:22:03.132Z,3.80
2022-11-16T05:23:05.706Z,3.45
2022-11-16T05:24:25.879Z,3.80
2022-11-16T05:25:33.872Z,3.38
2022-11-16T05:26:38.591Z,3.40
2022-11-16T05:27:41.347Z,3.40
2022-11-16T05:28:42.981Z,3.15
2022-11-16T05:29:45.928Z,3.97
2022-11-16T05:30:47.545Z,3.55
2022-11-16T05:31:50.086Z,3.53
2022-11-16T05:32:52.601Z,3.33
2022-11-16T05:33:54.125Z,3.40
2022-11-16T05:34:56.646Z,3.75
2022-11-16T05:35:59.565Z,4.07
2022-11-16T05:37:02.383Z,3.20
2022-11-16T05:38:04.036Z,3.85
2022-11-16T05:39:06.820Z,4.00
2022-11-16T05:40:09.633Z,3.78
2022-11-16T05:41:12.120Z,3.10
2022-11-16T05:42:13.933Z,4.07
2022-11-16T05:43:16.508Z,4.03
2022-11-16T05:44:18.296Z,3.88
2022-11-16T05:45:21.317Z,4.05
2022-11-16T05:46:24.067Z,3.80
2022-11-16T05:47:26.538Z,4.35
2022-11-16T05:48:28.098Z,3.90
2022-11-16T05:49:30.764Z,4.03
2022-11-16T05:50:32.688Z,4.95
2022-11-16T05:51:38.445Z,4.03
2022-11-16T05:52:39.942Z,4.07
2022-11-16T05:53:45.311Z,4.38
2022-11-16T05:54:47.775Z,5.00
2022-11-16T05:55:49.341Z,4.68
2022-11-16T05:56:52.157Z,4.28
2022-11-16T05:57:53.742Z,4.18
2022-11-16T05:58:56.349Z,4.90
2022-11-16T05:59:57.859Z,4.82
2022-11-16T06:01:00.340Z,4.25
2022-11-16T06:02:03.836Z,4.10
2022-11-16T06:03:05.565Z,4.30
2022-11-16T06:04:08.319Z,4.53
2022-11-16T06:05:09.945Z,4.40
2022-11-16T06:06:12.509Z,4.20
2022-11-16T06:07:15.525Z,3.90
2022-11-16T06:08:18.138Z,4.97
2022-11-16T06:09:20.709Z,4.20
2022-11-16T06:10:22.350Z,4.28
2022-11-16T06:11:25.197Z,4.30
2022-11-16T06:12:27.665Z,3.65
2022-11-16T06:13:29.449Z,4.25
2022-11-16T06:14:32.089Z,3.75
2022-11-16T06:15:37.098Z,3.85
2022-11-16T06:16:39.759Z,4.15
2022-11-16T06:17:41.272Z,4.93
2022-11-16T06:18:45.368Z,3.90
2022-11-16T06:19:46.863Z,4.65
2022-11-16T06:20:49.834Z,5.55
2022-11-16T06:21:52.323Z,4.28
2022-11-16T06:22:55.283Z,5.65
2022-11-16T06:23:57.925Z,5.53
2022-11-16T06:24:59.554Z,5.32
2022-11-16T06:26:02.574Z,5.47
2022-11-16T06:27:04.288Z,4.95
2022-11-16T06:28:08.288Z,5.35
2022-11-16T06:29:10.148Z,4.88
2022-11-16T06:30:12.887Z,4.35
2022-11-16T06:31:14.538Z,3.85
2022-11-16T06:32:17.021Z,2.95
2022-11-16T06:33:19.492Z,3.30
2022-11-16T06:34:22.048Z,3.10
2022-11-16T06:35:23.634Z,3.15
2022-11-16T06:36:26.139Z,3.53
2022-11-16T06:37:27.818Z,3.30
2022-11-16T06:38:32.113Z,3.90
2022-11-16T06:39:34.451Z,4.13
2022-11-16T06:40:38.652Z,3.35
2022-11-16T06:41:41.810Z,3.17
2022-11-16T06:42:45.011Z,3.25
2022-11-16T06:43:47.552Z,3.80
2022-11-16T06:44:49.076Z,3.90
2022-11-16T06:45:52.996Z,3.25
2022-11-16T06:46:54.519Z,3.25
2022-11-16T06:47:57.090Z,3.60
2022-11-16T06:48:59.730Z,3.63
2022-11-16T06:50:01.423Z,3.35
2022-11-16T06:51:04.143Z,3.70
2022-11-16T06:52:05.754Z,4.30
2022-11-16T06:53:08.397Z,4.57
2022-11-16T06:54:12.345Z,4.60
2022-11-16T06:55:14.042Z,3.90
2022-11-16T06:56:17.257Z,3.70
2022-11-16T06:57:18.838Z,3.50
2022-11-16T06:58:21.363Z,3.97
2022-11-16T06:59:22.944Z,3.50
2022-11-16T07:00:25.549Z,3.20
2022-11-16T07:01:28.256Z,4.20
2022-11-16T07:02:29.901Z,3.88
2022-11-16T07:03:32.573Z,3.67
2022-11-16T07:04:34.242Z,2.70
2022-11-16T07:05:40.833Z,3.40
2022-11-16T07:06:42.454Z,3.17
2022-11-16T07:07:44.909Z,3.50
2022-11-16T07:08:47.546Z,3.55
2022-11-16T07:09:50.527Z,3.25
2022-11-16T07:10:53.029Z,3.40
2022-11-16T07:11:54.590Z,4.13
2022-11-16T07:12:57.213Z,3.47
2022-11-16T07:13:59.697Z,3.63
2022-11-16T07:15:01.242Z,3.78
2022-11-16T07:16:04.795Z,3.50
2022-11-16T07:17:09.664Z,3.50
2022-11-16T07:18:12.473Z,3.53
2022-11-16T07:19:14.162Z,3.72
2022-11-16T07:20:18.481Z,3.55
2022-11-16T07:21:20.038Z,3.13
2022-11-16T07:22:22.649Z,4.20
2022-11-16T07:23:25.228Z,3.40
2022-11-16T07:24:27.764Z,3.00
2022-11-16T07:25:32.116Z,3.30
2022-11-16T07:26:35.223Z,4.13
2022-11-16T07:27:36.887Z,3.30
2022-11-16T07:28:43.488Z,3.00
2022-11-16T07:29:49.415Z,2.83
2022-11-16T07:30:51.903Z,3.20
2022-11-16T07:31:53.456Z,3.83
2022-11-16T07:32:59.709Z,3.15
2022-11-16T07:34:01.362Z,3.35
2022-11-16T07:35:04.191Z,2.90
2022-11-16T07:36:08.447Z,3.28
2022-11-16T07:37:11.062Z,3.42
2022-11-16T07:38:16.842Z,3.28
2022-11-16T07:39:21.781Z,3.60
2022-11-16T07:40:24.284Z,3.17
2022-11-16T07:41:27.224Z,3.55
2022-11-16T07:42:29.686Z,3.20
2022-11-16T07:43:32.501Z,2.75
2022-11-16T07:44:35.076Z,3.90
2022-11-16T07:45:37.573Z,4.07
2022-11-16T07:46:47.898Z,3.42
2022-11-16T07:47:53.179Z,3.38
2022-11-16T07:48:54.923Z,3.55
2022-11-16T07:49:57.638Z,3.78
2022-11-16T07:51:03.387Z,4.38
2022-11-16T07:52:06.125Z,3.78
2022-11-16T07:53:08.582Z,3.83
2022-11-16T07:54:11.882Z,4.60
2022-11-16T07:55:14.607Z,4.40
2022-11-16T07:56:16.395Z,4.25
2022-11-16T07:57:20.323Z,4.97
2022-11-16T07:58:22.754Z,3.20
2022-11-16T07:59:25.687Z,4.50
2022-11-16T08:00:27.611Z,3.60
2022-11-16T08:01:30.333Z,5.22
2022-11-16T08:02:32.879Z,2.83
2022-11-16T08:03:35.770Z,3.38
2022-11-16T08:04:39.421Z,3.78
2022-11-16T08:05:40.940Z,4.00
2022-11-16T08:06:43.453Z,3.80
2022-11-16T08:07:44.977Z,3.40
2022-11-16T08:08:47.570Z,3.35
2022-11-16T08:09:49.900Z,3.65
2022-11-16T08:10:52.481Z,3.95
2022-11-16T08:11:55.011Z,3.80
2022-11-16T08:12:59.268Z,3.25
2022-11-16T08:14:01.883Z,4.28
2022-11-16T08:15:04.067Z,4.32
2022-11-16T08:16:09.450Z,4.70
2022-11-16T08:17:11.084Z,4.55
2022-11-16T08:18:13.614Z,5.13
2022-11-16T08:19:16.109Z,4.35
2022-11-16T08:20:17.970Z,4.30
2022-11-16T08:21:20.528Z,4.03
2022-11-16T08:22:23.023Z,4.95
2022-11-16T08:23:24.581Z,3.20
2022-11-16T08:24:27.460Z,3.80
2022-11-16T08:25:29.071Z,3.25
2022-11-16T08:26:32.703Z,4.32
2022-11-16T08:27:35.244Z,3.88
2022-11-16T08:28:39.976Z,3.40
2022-11-16T08:29:42.464Z,3.40
2022-11-16T08:30:44.960Z,3.30
2022-11-16T08:31:49.798Z,3.60
2022-11-16T08:32:51.382Z,3.63
2022-11-16T08:33:53.990Z,4.22
2022-11-16T08:34:56.619Z,3.67
2022-11-16T08:35:59.439Z,3.10
2022-11-16T08:37:01.910Z,3.33
2022-11-16T08:38:03.558Z,3.20
2022-11-16T08:39:06.159Z,3.50
2022-11-16T08:40:09.505Z,3.38
2022-11-16T08:41:11.140Z,3.53
2022-11-16T08:42:13.675Z,3.00
2022-11-16T08:43:16.702Z,3.58
2022-11-16T08:44:20.538Z,3.00
2022-11-16T08:45:22.137Z,3.03
2022-11-16T08:46:24.603Z,4.18
2022-11-16T08:47:26.214Z,2.80
2022-11-16T08:48:28.826Z,2.50
2022-11-16T08:49:30.395Z,3.70
2022-11-16T08:50:44.270Z,2.60
2022-11-16T08:51:55.905Z,2.92
2022-11-16T08:52:57.874Z,2.13
2022-11-16T08:54:01.531Z,2.55
2022-11-16T08:55:03.197Z,2.78
2022-11-16T08:56:06.152Z,2.95
2022-11-16T08:57:08.657Z,2.72
2022-11-16T08:58:10.982Z,2.90
2022-11-16T08:59:13.734Z,2.80
2022-11-16T09:00:18.145Z,2.55
2022-11-16T09:01:22.757Z,2.60
2022-11-16T09:02:25.829Z,3.10
2022-11-16T09:03:27.736Z,2.72
2022-11-16T09:04:35.680Z,3.28
2022-11-16T09:05:38.775Z,2.33
2022-11-16T09:06:41.345Z,2.42
2022-11-16T09:07:44.015Z,2.67
2022-11-16T09:08:47.469Z,2.65
2022-11-16T09:09:50.187Z,2.63
2022-11-16T09:10:51.748Z,2.15
2022-11-16T09:11:55.878Z,2.25
2022-11-16T09:12:58.127Z,2.72
2022-11-16T09:14:00.846Z,3.45
2022-11-16T09:15:03.094Z,3.35
2022-11-16T09:16:07.854Z,2.75
2022-11-16T09:17:10.622Z,2.50
2022-11-16T09:18:12.132Z,2.50
2022-11-16T09:19:14.696Z,2.58
2022-11-16T09:20:16.374Z,2.50
2022-11-16T09:21:20.382Z,1.90
2022-11-16T09:22:21.916Z,2.15
2022-11-16T09:23:25.723Z,2.30
2022-11-16T09:24:28.487Z,2.58
2022-11-16T09:25:31.023Z,3.90
2022-11-16T09:26:32.573Z,2.47
2022-11-16T09:27:35.047Z,1.80
2022-11-16T09:28:36.924Z,1.80
2022-11-16T09:29:39.709Z,2.22
2022-11-16T09:30:41.577Z,2.42
2022-11-16T09:31:45.618Z,2.28
2022-11-16T09:32:47.221Z,2.33
2022-11-16T09:33:49.735Z,2.13
2022-11-16T09:34:52.259Z,2.17
2022-11-16T09:35:53.800Z,1.80
2022-11-16T09:36:56.274Z,2.40
2022-11-16T09:37:57.769Z,1.90
2022-11-16T09:39:28.786Z,2.30
2022-11-16T09:40:23.409Z,2.25
2022-11-16T09:41:41.180Z,2.72
2022-11-16T09:42:53.581Z,2.30
2022-11-16T09:44:04.007Z,2.08
2022-11-16T09:45:11.951Z,2.33
2022-11-16T09:46:22.283Z,2.70
2022-11-16T09:47:40.312Z,2.30
2022-11-16T09:48:46.236Z,1.90
2022-11-16T09:49:58.231Z,2.25
2022-11-16T09:51:08.107Z,2.38
2022-11-16T09:52:14.517Z,1.75
2022-11-16T09:53:34.599Z,2.10
2022-11-16T09:54:40.203Z,1.80
2022-11-16T09:55:48.485Z,2.53
2022-11-16T09:56:54.304Z,2.30
2022-11-16T09:58:00.690Z,1.90
2022-11-16T09:59:07.097Z,2.10
2022-11-16T10:00:23.544Z,2.03
2022-11-16T10:01:29.182Z,1.90
2022-11-16T10:02:36.486Z,1.90
2022-11-16T10:03:44.130Z,2.22
2022-11-16T10:04:57.749Z,2.80
2022-11-16T10:06:04.179Z,1.95
2022-11-16T10:07:13.810Z,2.63
2022-11-16T10:08:25.500Z,2.25
2022-11-16T10:09:28.841Z,1.80
2022-11-16T10:10:37.597Z,3.65
2022-11-16T10:11:50.072Z,2.20
2022-11-16T10:12:56.877Z,2.67
2022-11-16T10:14:09.257Z,2.33
2022-11-16T10:15:28.212Z,2.25
2022-11-16T10:16:37.982Z,2.30
2022-11-16T10:18:01.747Z,2.10
2022-11-16T10:19:13.192Z,2.80
2022-11-16T10:20:34.751Z,3.75
2022-11-16T10:21:48.804Z,2.50
2022-11-16T10:22:58.282Z,2.85
2022-11-16T10:24:24.313Z,2.63
2022-11-16T10:25:31.789Z,2.80
2022-11-16T10:26:44.235Z,2.85
2022-11-16T10:28:27.823Z,2.28
2022-11-16T10:29:40.793Z,2.42
2022-11-16T10:30:48.915Z,2.70
2022-11-16T10:32:04.209Z,2.03
2022-11-16T10:33:14.275Z,2.20
2022-11-16T10:34:20.172Z,2.70
2022-11-16T10:35:29.538Z,2.35
2022-11-16T10:36:36.923Z,2.10
2022-11-16T10:37:47.442Z,2.35
2022-11-16T10:38:50.027Z,2.20
2022-11-16T10:39:53.164Z,3.10
2022-11-16T10:40:58.751Z,2.40
2022-11-16T10:42:07.254Z,2.10
2022-11-16T10:43:14.551Z,2.45
2022-11-16T10:44:21.790Z,1.98
2022-11-16T10:45:29.815Z,2.20
2022-11-16T10:46:36.400Z,1.95
2022-11-16T10:47:44.569Z,2.30
2022-11-16T10:48:58.251Z,1.98
2022-11-16T10:50:01.653Z,2.20
2022-11-16T10:51:05.785Z,3.00
2022-11-16T10:52:07.397Z,4.38
2022-11-16T10:53:14.117Z,2.60
2022-11-16T10:54:17.382Z,2.53
2022-11-16T10:55:22.527Z,2.92
2022-11-16T10:56:29.959Z,2.42
2022-11-16T10:57:54.647Z,3.20
2022-11-16T10:59:00.238Z,2.28
2022-11-16T11:00:03.301Z,2.70
2022-11-16T11:01:28.158Z,2.20
2022-11-16T11:02:37.773Z,2.70
2022-11-16T11:03:40.242Z,2.53
2022-11-16T11:05:02.947Z,1.90
2022-11-16T11:06:08.472Z,1.90
2022-11-16T11:07:24.469Z,2.10
2022-11-16T11:08:30.350Z,1.90
2022-11-16T11:09:33.439Z,2.35
2022-11-16T11:10:38.565Z,2.60
2022-11-16T11:11:58.740Z,2.40
2022-11-16T11:13:21.705Z,2.20
2022-11-16T11:14:23.242Z,1.95
2022-11-16T11:15:26.807Z,2.00
2022-11-16T11:16:29.803Z,2.13
2022-11-16T11:17:33.619Z,2.42
2022-11-16T11:18:36.116Z,2.20
2022-11-16T11:19:37.804Z,2.28
2022-11-16T11:20:45.036Z,2.47
2022-11-16T11:21:48.635Z,2.85
2022-11-16T11:22:54.279Z,2.25
2022-11-16T11:24:16.100Z,1.90
2022-11-16T11:25:22.836Z,2.20
2022-11-16T11:26:35.938Z,2.20
2022-11-16T11:27:39.399Z,1.90
2022-11-16T11:28:47.807Z,2.20
2022-11-16T11:29:53.757Z,2.00
2022-11-16T11:31:00.326Z,1.92
2022-11-16T11:32:07.214Z,2.15
2022-11-16T11:33:12.495Z,2.30
2022-11-16T11:34:19.768Z,3.38
2022-11-16T11:35:26.838Z,2.30
2022-11-16T11:36:38.288Z,2.88
2022-11-16T11:37:40.872Z,1.80
2022-11-16T11:38:57.648Z,2.22
2022-11-16T11:40:22.476Z,2.10
2022-11-16T11:41:27.512Z,2.08
2022-11-16T11:42:29.041Z,1.88
2022-11-16T11:43:33.597Z,2.80
2022-11-16T11:44:44.709Z,2.45
2022-11-16T11:45:52.555Z,2.20
2022-11-16T11:48:33.685Z,2.33
2022-11-16T11:49:40.616Z,3.55
2022-11-16T11:50:48.543Z,2.65
2022-11-16T11:51:53.083Z,2.35
2022-11-16T11:53:00.697Z,2.85
2022-11-16T11:54:06.019Z,2.00
2022-11-16T11:55:08.767Z,2.33
2022-11-16T11:56:12.966Z,2.17
2022-11-16T11:57:16.445Z,2.20
2022-11-16T11:58:21.894Z,1.98
2022-11-16T11:59:27.330Z,3.50
2022-11-16T12:00:37.400Z,2.65
2022-11-16T12:02:00.355Z,2.42
2022-11-16T12:03:31.612Z,2.45
2022-11-16T12:05:15.507Z,2.15
2022-11-16T12:06:22.785Z,2.67
2022-11-16T12:07:40.411Z,2.03
2022-11-16T12:09:05.631Z,2.50
2022-11-16T12:10:19.639Z,1.95
2022-11-16T12:11:30.261Z,2.60
2022-11-16T12:12:43.491Z,2.00
2022-11-16T12:14:00.093Z,2.67
2022-11-16T12:15:23.290Z,1.90
2022-11-16T12:16:33.415Z,2.60
2022-11-16T12:17:49.801Z,1.88
2022-11-16T12:19:12.761Z,2.25
2022-11-16T12:20:29.040Z,1.95
2022-11-16T12:21:42.559Z,1.80
2022-11-16T12:23:26.207Z,2.10
2022-11-16T12:24:44.045Z,2.30
2022-11-16T12:25:54.308Z,1.98
2022-11-16T12:27:09.981Z,2.55
2022-11-16T12:28:24.879Z,2.70
2022-11-16T12:29:33.371Z,2.17
2022-11-16T12:30:45.726Z,2.30
2022-11-16T12:31:59.915Z,1.90
2022-11-16T12:33:21.798Z,2.17
2022-11-16T12:34:32.942Z,1.75
2022-11-16T12:35:45.790Z,2.30
2022-11-16T12:36:57.874Z,2.70
2022-11-16T12:38:10.669Z,2.40
2022-11-16T12:39:23.741Z,3.28
2022-11-16T12:40:38.521Z,1.95
2022-11-16T12:42:22.205Z,2.88
2022-11-16T12:43:36.525Z,2.00
2022-11-16T12:45:03.070Z,2.20
2022-11-16T12:46:16.403Z,1.80
2022-11-16T12:47:28.270Z,2.60
2022-11-16T12:49:03.089Z,2.00
2022-11-16T12:50:16.677Z,3.15
2022-11-16T12:51:33.678Z,2.20
2022-11-16T12:52:52.529Z,2.15
2022-11-16T12:54:27.014Z,3.25
2022-11-16T12:55:40.783Z,1.50
2022-11-16T12:56:49.769Z,1.85
2022-11-16T12:58:03.316Z,2.38
2022-11-16T12:59:22.413Z,3.75
2022-11-16T13:00:25.055Z,2.13
2022-11-16T13:01:35.595Z,2.25
2022-11-16T13:02:59.930Z,2.20
2022-11-16T13:04:07.205Z,3.80
2022-11-16T13:05:17.949Z,2.53
2022-11-16T13:06:25.771Z,2.90
2022-11-16T13:07:34.124Z,1.70
2022-11-16T13:08:44.546Z,2.28
2022-11-16T13:09:53.183Z,1.67
2022-11-16T13:11:05.285Z,2.65
2022-11-16T13:12:14.108Z,2.28
2022-11-16T13:13:36.035Z,2.20
2022-11-16T13:14:42.875Z,2.47
2022-11-16T13:15:46.268Z,2.30
2022-11-16T13:16:50.100Z,2.10
2022-11-16T13:17:56.652Z,2.13
2022-11-16T13:19:01.652Z,2.40
2022-11-16T13:20:19.924Z,1.70
2022-11-16T13:21:32.373Z,1.65
2022-11-16T13:22:37.596Z,1.35
2022-11-16T13:23:50.607Z,1.60
2022-11-16T13:25:00.953Z,1.90
2022-11-16T13:26:10.449Z,2.45
2022-11-16T13:27:35.318Z,1.55
2022-11-16T13:28:44.320Z,2.05
2022-11-16T13:29:54.601Z,1.55
2022-11-16T13:31:05.429Z,1.58
2022-11-16T13:32:14.936Z,1.88
2022-11-16T13:33:29.300Z,1.70
2022-11-16T13:34:34.735Z,2.00
2022-11-16T13:35:38.247Z,1.42
2022-11-16T13:36:46.352Z,1.70
2022-11-16T13:37:48.992Z,1.90
2022-11-16T13:38:53.142Z,1.50
2022-11-16T13:40:23.011Z,2.00
2022-11-16T13:41:32.151Z,1.73
2022-11-16T13:42:36.660Z,1.73
2022-11-16T13:43:48.070Z,2.15
2022-11-16T13:44:51.748Z,1.63
2022-11-16T13:45:58.134Z,1.40
2022-11-16T13:47:04.439Z,1.77
2022-11-16T13:48:18.370Z,1.70
2022-11-16T13:49:25.523Z,1.80
2022-11-16T13:50:37.078Z,2.13
2022-11-16T13:51:40.163Z,1.40
2022-11-16T13:53:28.424Z,1.70
2022-11-16T13:55:33.036Z,1.52
2022-11-16T13:56:48.025Z,1.80
2022-11-16T13:57:52.787Z,2.05
2022-11-16T13:58:55.574Z,1.50
2022-11-16T14:00:11.008Z,1.80
2022-11-16T14:01:20.051Z,1.52
2022-11-16T14:02:31.278Z,1.90
2022-11-16T14:03:38.473Z,1.80
2022-11-16T14:04:44.435Z,1.20
2022-11-16T14:05:48.212Z,1.80
2022-11-16T14:06:58.752Z,1.80
2022-11-16T14:08:40.467Z,1.38
2022-11-16T14:09:43.874Z,1.73
2022-11-16T14:11:01.905Z,2.20
2022-11-16T14:12:36.879Z,1.65
2022-11-16T14:13:42.136Z,1.42
2022-11-16T14:15:13.333Z,1.88
2022-11-16T14:16:45.436Z,1.65
2022-11-16T14:17:51.556Z,2.30
2022-11-16T14:18:56.143Z,1.60
2022-11-16T14:19:58.079Z,1.60
2022-11-16T14:21:07.261Z,1.77
2022-11-16T14:22:20.664Z,1.88
2022-11-16T14:23:49.045Z,1.80
2022-11-16T14:24:55.657Z,2.28
2022-11-16T14:26:12.980Z,1.80
2022-11-16T14:27:21.133Z,1.92
2022-11-16T14:28:43.866Z,1.83
2022-11-16T14:29:56.996Z,2.22
2022-11-16T14:31:13.869Z,1.85
2022-11-16T14:32:22.927Z,2.40
2022-11-16T14:33:30.771Z,2.00
2022-11-16T14:34:42.345Z,1.63
2022-11-16T14:35:52.435Z,2.67
2022-11-16T14:36:55.793Z,2.35
2022-11-16T14:37:59.166Z,2.10
2022-11-16T14:39:16.071Z,2.40
2022-11-16T14:40:19.809Z,1.63
2022-11-16T14:41:25.797Z,1.90
2022-11-16T14:42:38.125Z,1.83
2022-11-16T14:43:55.030Z,2.00
2022-11-16T14:45:01.323Z,2.35
2022-11-16T14:46:08.477Z,1.80
2022-11-16T14:47:23.141Z,1.80
2022-11-16T14:48:26.829Z,2.03
2022-11-16T14:49:31.357Z,1.73
2022-11-16T14:50:40.694Z,1.90
2022-11-16T14:51:45.926Z,1.80
2022-11-16T14:52:51.950Z,1.83
2022-11-16T14:53:57.590Z,2.00
2022-11-16T14:55:04.035Z,1.60
2022-11-16T14:56:08.663Z,2.25